Flugplatz Borkum (EDWR)

Hier findest Du alle Informationen zum Flugplatz Borkum (EDWR).

Informationen für Piloten zum Flugplatz Borkum

Hier findest Du alle relevanten Informationen, die Du als Pilot benötigst, um Borkum anzufliegen.

Flugplatz: Borkum ICAO-Code: EDWR
Frequenz Turm: 123,000 Mhz GAFOR Gebiet: 1
Frequenz Ground: 123,000 Mhz Mogas: ja
Platzrunde: - Landegebühr: -
Platzhöhe: 3 ft Sunrise: 06:13 Uhr UTC
Pisten: 13/31 - 1.000 m x 20 m, ASPH Sunset: 17:16 Uhr UTC

Mitglieder, die in Borkum fliegen

Flugwetter am Flugplatz Borkum

Die METAR Information stammen aus EDDW (150.74 km entfernt).

METAR Code:
2023/12/16 20:20
EDDW 162020Z AUTO 24012KT 8000 OVC006 09/08 Q1034 NOSIG

Flugschulen am Flugplatz Borkum

Am Flugplatz Borkum gibt es leider keine Flugschule.

Benachbarte Flugplätze und Flugschulen

Es gibt 6 weitere Flugplätze in einem Umkreis von 50 km um den Flugplatz Borkum.

Flugplatz Juist EDWJ 24.83 km
Flugplatz Norden-Norddeich EDWS 32.00 km
Flugplatz Norderney EDWY 36.37 km
Flugplatz Emden EDWE 40.93 km
Flugplatz Baltrum EDWZ 45.93 km
Flugplatz Oostwold EHOW 48.04 km
Jetzt anmelden

Passwort vergessen

Umfrage Archiv

Wie häufig haltet Ihr die Halbkreisflugregel ein?

Eher häufig!
34.9 %
Immer!
33 %
Hin und wieder!
15.3 %
Nie!
10 %
Eher selten!
6.7 %
Stimmen: 209 | Diskussion
Anzeige: Roland Aircraft
Statistik Alle Mitglieder

Aktuell sind 24 Besucher online, davon 1 Mitglied und 23 Gäste.


Mitglieder online:
Nordex 

Anzeige: EasyVFR